HKJKFMNN

Guest
Details From HKJK - Nairobi Jomo Kanyatta Intl
To FMNN - Fascene
Flight Number -
Tags Generated
Created
Modified
Stats Distance 989 nm / 1,831 km
Max Altitude 0 ft / 0 m
Waypoints 4
Social Downloads 0
Likes 0
Share VATSIM

Download

Looking for another format? Having issues loading an existing format? Contact us
Advertisement - Login to hide

Notes

Generated

Route

HKJK MOV14 VSN FMNN

ID Type Via Altitude Latitude Longitude Leg Dist Tot Dist Heading (true) Name
O HKJK APT - 0 ft / 0 m -1.32774˚ 36.91612˚ - 0 nm - -
MOV14 FIX - 0 ft / 0 m -4.15159˚ 39.52598˚ 230 nm 230 nm 137° / 137° -
VSN NDB - 0 ft / 0 m -13.31986˚ 48.31011˚ 757 nm 988 nm 137° / 136° FASCENE NDB
O FMNN APT - 0 ft / 0 m -13.31932˚ 48.30791˚ 0 nm 988 nm 284° / 284° -

Altitude Profile

Advertisement - Login to hide

Weather


0- 5 10 15 20 25 30 35+ Temperature / ° C

Clouds and Precipitation
Forecast for 2018-05-28 00:00 UTC. Updated 9 hours ago

Ground ~20,000 ft ~40,000 ft Winds

HKJK

Details ICAO HKJK (NBO)
Name Nairobi Jomo Kanyatta Intl
Region Kenya
Timezone Africa/Nairobi (UTC+3.0)
Stats Elevation 5,330 ft / 1,625 m (AMSL)
Location -1.317073° 36.930757°
Runways 1
Magnetic Variation 0.591° E

METAR

Not found

TAF

TAF TAF HKJK 272300Z 2800/2906 22005KT 9999 FEW033 TEMPO 2800/2806 SCT009 BKN019 BECMG 2808/2811 14010KT BKN025 BECMG 2920/2923 22005KT FEW008 SCT018

Decode

Departure Runways

ID Width Length Bearing (true) Bearing (mag) Surface Threshold Offset Overrun Length
06 148 ft / 45 m 13,215 ft / 4,028 m 53.90° 53.31° Asphalt 0 ft / 0 m 194 ft / 59 m
24 148 ft / 45 m 13,215 ft / 4,028 m 233.90° 233.31° Asphalt 0 ft / 0 m 197 ft / 60 m

FMNN

Details ICAO FMNN (NOS)
Name FASCENE
Region Comoros, Mayotte, Réunion and Madagascar
Timezone Indian/Antananarivo (UTC+3.0)
Stats Elevation 36 ft / 11 m (AMSL)
Location -13.312067° 48.314821°
Runways 1
Magnetic Variation 9.471° W

METAR

Not found

TAF

TAF FMNN 272300Z 2800/2824 04005KT 9999 SCT020 BECMG 2810/2812 24010KT BECMG 2815/2818 06005KT

Decode

Destination Runways

ID Width Length Bearing (true) Bearing (mag) Surface Threshold Offset Overrun Length
05 148 ft / 45 m 7,220 ft / 2,201 m 42.86° 52.33° Asphalt 0 ft / 0 m 164 ft / 50 m
23 148 ft / 45 m 7,220 ft / 2,201 m 222.85° 232.32° Asphalt 0 ft / 0 m 197 ft / 60 m